Time;durP1;ratioP1;P1;durP2;ratioP2;P2;SDS_P1;SDS_P2;PMS_P1;PMS_P2;Temp;Humidity;BMP_temperature;BMP_pressure;BME280_temperature;BME280_humidity;BME280_pressure;Samples;Min_cycle;Max_cycle;Signal;HPM_P1;HPM_P2
2022/06/30 00:02:01;;;;;;;0.70;0.50;;;19.20;99.90;;;;;;5070770;28;20080;-78
2022/06/30 00:04:28;;;;;;;0.77;0.45;;;19.20;99.90;;;;;;5054316;28;20536;-80
2022/06/30 00:06:54;;;;;;;0.52;0.45;;;19.10;99.90;;;;;;5037828;28;20037;-79
2022/06/30 00:09:21;;;;;;;0.77;0.50;;;19.10;99.90;;;;;;5070260;28;20133;-80
2022/06/30 00:11:48;;;;;;;0.40;0.40;;;19.10;99.90;;;;;;5053345;28;20048;-80
2022/06/30 00:14:15;;;;;;;0.60;0.50;;;19.10;99.90;;;;;;5070306;28;20037;-79
2022/06/30 00:16:42;;;;;;;0.30;0.30;;;19.20;99.90;;;;;;5054131;28;20467;-80
2022/06/30 00:19:08;;;;;;;0.68;0.50;;;19.20;99.90;;;;;;5070218;28;20608;-79
2022/06/30 00:21:35;;;;;;;0.90;0.50;;;19.30;99.90;;;;;;5053919;28;20036;-80
2022/06/30 00:24:02;;;;;;;0.52;0.50;;;19.30;99.90;;;;;;5069662;28;20049;-79
2022/06/30 00:26:29;;;;;;;0.60;0.40;;;19.40;99.90;;;;;;5053931;28;20092;-79
2022/06/30 00:28:55;;;;;;;0.30;0.30;;;19.40;99.90;;;;;;5054050;28;20041;-79
2022/06/30 00:31:22;;;;;;;0.45;0.40;;;19.50;99.90;;;;;;5037404;28;20041;-79
2022/06/30 00:33:50;;;;;;;0.43;0.38;;;19.50;99.90;;;;;;5086455;28;20049;-80
2022/06/30 00:36:16;;;;;;;0.80;0.68;;;19.50;99.90;;;;;;5037196;28;20088;-79
2022/06/30 00:38:43;;;;;;;0.55;0.43;;;19.50;99.90;;;;;;5037177;28;20081;-80
2022/06/30 00:41:10;;;;;;;0.38;0.38;;;19.50;99.90;;;;;;5053511;28;20041;-80
2022/06/30 00:43:47;;;;;;;0.45;0.40;;;19.50;99.90;;;;;;5069800;28;20117;-79
2022/06/30 00:46:15;;;;;;;0.77;0.40;;;19.40;99.90;;;;;;5069479;28;20037;-80
2022/06/30 00:48:43;;;;;;;0.57;0.40;;;19.50;99.90;;;;;;5070457;28;20430;-79
2022/06/30 00:51:10;;;;;;;0.77;0.52;;;19.40;99.90;;;;;;5069246;28;20041;-81
2022/06/30 00:53:39;;;;;;;1.50;0.70;;;19.40;99.90;;;;;;5068826;28;20494;-80
2022/06/30 00:56:08;;;;;;;1.02;0.60;;;19.30;99.90;;;;;;5085463;28;20041;-79
2022/06/30 00:58:41;;;;;;;0.80;0.60;;;19.30;99.90;;;;;;5069269;28;20048;-79
2022/06/30 01:01:10;;;;;;;0.38;0.38;;;19.20;99.90;;;;;;5068825;28;20041;-79
2022/06/30 01:03:37;;;;;;;0.55;0.43;;;19.20;99.90;;;;;;5085576;28;20493;-80
2022/06/30 01:06:05;;;;;;;0.43;0.40;;;19.10;99.90;;;;;;5052085;28;20489;-79
2022/06/30 01:08:33;;;;;;;0.57;0.45;;;19.00;99.90;;;;;;5068999;28;20044;-79
2022/06/30 01:13:49;;;;;;;0.60;0.50;;;19.00;99.90;;;;;;5071241;28;20056;-80
2022/06/30 01:16:19;;;;;;;0.60;0.47;;;18.90;99.90;;;;;;5068768;28;20105;-79
2022/06/30 01:18:46;;;;;;;0.50;0.32;;;18.90;99.90;;;;;;5036727;28;20033;-78
2022/06/30 01:21:12;;;;;;;0.52;0.40;;;19.00;99.90;;;;;;5035783;28;20052;-78
2022/06/30 01:23:39;;;;;;;0.57;0.40;;;19.00;99.90;;;;;;5085328;28;20080;-80
2022/06/30 01:26:06;;;;;;;0.50;0.50;;;19.00;99.90;;;;;;5053209;28;20033;-79
2022/06/30 01:28:33;;;;;;;0.57;0.47;;;19.00;99.90;;;;;;5055749;28;20049;-80
2022/06/30 01:30:59;;;;;;;0.40;0.40;;;19.00;99.90;;;;;;5055390;28;20041;-81
2022/06/30 01:33:26;;;;;;;0.50;0.43;;;19.00;99.90;;;;;;5071821;28;20036;-80
2022/06/30 01:35:56;;;;;;;0.38;0.32;;;18.90;99.90;;;;;;5072220;28;20048;-79
2022/06/30 01:38:23;;;;;;;0.85;0.40;;;18.90;99.90;;;;;;5088389;28;20436;-80
2022/06/30 01:40:50;;;;;;;0.73;0.60;;;18.90;99.90;;;;;;5071839;28;20048;-79
2022/06/30 01:43:17;;;;;;;0.40;0.30;;;18.90;99.90;;;;;;5071689;28;20036;-79
2022/06/30 01:45:44;;;;;;;0.40;0.40;;;18.90;99.90;;;;;;5055641;28;20056;-79
2022/06/30 01:48:10;;;;;;;0.32;0.32;;;18.90;99.90;;;;;;5057294;28;20039;-79
2022/06/30 01:50:38;;;;;;;0.30;0.30;;;18.90;99.90;;;;;;5095399;28;20123;-80
2022/06/30 01:53:05;;;;;;;0.77;0.47;;;18.80;99.90;;;;;;5078503;28;20493;-80
2022/06/30 01:55:31;;;;;;;0.40;0.35;;;18.80;99.90;;;;;;5094732;28;20044;-80
2022/06/30 01:57:58;;;;;;;0.93;0.55;;;18.70;99.90;;;;;;5078437;28;20043;-79
2022/06/30 02:00:26;;;;;;;0.40;0.40;;;18.70;99.90;;;;;;5078149;28;20059;-79
2022/06/30 02:02:55;;;;;;;0.30;0.30;;;18.60;99.90;;;;;;5061899;28;20071;-80
2022/06/30 02:05:22;;;;;;;0.57;0.38;;;18.50;99.90;;;;;;5078295;28;20052;-81
2022/06/30 02:07:49;;;;;;;0.40;0.40;;;18.40;99.90;;;;;;5061822;28;20044;-79
2022/06/30 02:10:19;;;;;;;0.20;0.20;;;18.40;99.90;;;;;;5094811;28;20409;-79
2022/06/30 02:12:46;;;;;;;0.50;0.40;;;18.30;99.90;;;;;;5078222;28;20455;-79
2022/06/30 02:15:24;;;;;;;0.35;0.35;;;18.30;99.90;;;;;;5094472;28;20043;-80
2022/06/30 02:17:53;;;;;;;0.40;0.28;;;18.20;99.90;;;;;;5078519;28;20040;-81
2022/06/30 02:20:23;;;;;;;0.55;0.40;;;18.30;99.90;;;;;;5094708;28;20049;-81
2022/06/30 02:22:55;;;;;;;0.57;0.50;;;18.20;99.90;;;;;;5077915;28;20436;-79
2022/06/30 02:25:27;;;;;;;0.68;0.45;;;18.20;99.90;;;;;;5077479;28;20048;-80
2022/06/30 02:27:54;;;;;;;0.40;0.35;;;18.30;99.90;;;;;;5077499;28;20052;-79
2022/06/30 02:30:22;;;;;;;0.30;0.30;;;18.20;99.90;;;;;;5078042;28;20051;-80
2022/06/30 02:32:49;;;;;;;1.13;0.50;;;18.10;99.90;;;;;;5078126;28;20394;-81
2022/06/30 02:35:16;;;;;;;0.80;0.38;;;18.10;99.90;;;;;;5078002;28;20041;-81
2022/06/30 02:37:42;;;;;;;0.20;0.20;;;18.00;99.90;;;;;;5077893;28;20405;-79
2022/06/30 02:40:10;;;;;;;0.40;0.40;;;18.00;99.90;;;;;;5094778;28;20556;-79
2022/06/30 02:42:37;;;;;;;0.75;0.57;;;18.00;99.90;;;;;;5095175;28;20396;-78
2022/06/30 02:45:04;;;;;;;0.70;0.40;;;18.00;99.90;;;;;;5078198;28;20048;-80
2022/06/30 02:47:37;;;;;;;0.40;0.40;;;18.00;99.90;;;;;;5078029;28;20040;-80
2022/06/30 02:50:06;;;;;;;1.35;0.43;;;18.00;99.90;;;;;;5077892;28;20050;-79
2022/06/30 02:52:35;;;;;;;0.82;0.52;;;18.00;99.90;;;;;;5077646;28;20443;-79
2022/06/30 02:55:03;;;;;;;1.00;0.50;;;18.00;99.90;;;;;;5105346;28;20040;-79
2022/06/30 02:57:30;;;;;;;0.40;0.38;;;18.00;99.90;;;;;;5073451;28;20106;-79
2022/06/30 02:59:57;;;;;;;0.30;0.30;;;18.00;99.90;;;;;;5095733;28;20044;-80
2022/06/30 03:02:23;;;;;;;0.73;0.50;;;18.00;99.90;;;;;;5108446;28;20052;-79
2022/06/30 03:04:50;;;;;;;0.63;0.40;;;18.00;99.90;;;;;;5078196;28;20047;-80
2022/06/30 03:07:17;;;;;;;0.43;0.35;;;17.90;99.90;;;;;;5064723;28;20036;-80
2022/06/30 03:09:43;;;;;;;0.30;0.30;;;17.90;99.90;;;;;;5076073;28;20127;-79
2022/06/30 03:12:10;;;;;;;0.52;0.38;;;17.90;99.90;;;;;;5075689;28;20458;-81
2022/06/30 03:14:37;;;;;;;0.43;0.30;;;17.80;99.90;;;;;;5058758;28;20687;-79
2022/06/30 03:17:04;;;;;;;0.47;0.47;;;17.80;99.90;;;;;;5075195;28;20075;-79
2022/06/30 03:19:31;;;;;;;0.40;0.40;;;17.70;99.90;;;;;;5058762;28;20051;-79
2022/06/30 03:21:57;;;;;;;0.45;0.32;;;17.70;99.90;;;;;;5058978;28;20393;-79
2022/06/30 03:24:24;;;;;;;0.35;0.35;;;17.70;99.90;;;;;;5058776;28;20048;-78
2022/06/30 03:26:51;;;;;;;0.65;0.40;;;17.70;99.90;;;;;;5058641;28;20547;-80
2022/06/30 03:29:18;;;;;;;0.28;0.28;;;17.70;99.90;;;;;;5074738;28;20441;-80
2022/06/30 03:31:44;;;;;;;0.50;0.40;;;17.60;99.90;;;;;;5075068;28;20044;-78
2022/06/30 03:34:11;;;;;;;0.17;0.17;;;17.60;99.90;;;;;;5058710;28;20044;-79
2022/06/30 03:36:38;;;;;;;0.82;0.50;;;17.60;99.90;;;;;;5057941;28;20044;-80
2022/06/30 03:39:05;;;;;;;0.47;0.40;;;17.60;99.90;;;;;;5075070;28;20131;-78
2022/06/30 03:41:32;;;;;;;0.50;0.30;;;17.60;99.90;;;;;;5075042;28;20048;-79
2022/06/30 03:43:58;;;;;;;0.32;0.28;;;17.60;99.90;;;;;;5058174;28;20595;-80
2022/06/30 03:46:25;;;;;;;0.80;0.43;;;17.60;99.90;;;;;;5041679;28;20043;-79
2022/06/30 03:48:52;;;;;;;0.63;0.40;;;17.60;99.90;;;;;;5074408;28;20195;-80
2022/06/30 03:51:18;;;;;;;0.65;0.50;;;17.60;99.90;;;;;;5074805;28;20036;-78
2022/06/30 03:53:45;;;;;;;0.30;0.30;;;17.60;99.90;;;;;;5041911;28;20044;-80
2022/06/30 03:56:12;;;;;;;0.30;0.30;;;17.60;99.90;;;;;;5074355;28;20450;-80
2022/06/30 03:58:39;;;;;;;0.63;0.40;;;17.60;99.90;;;;;;5041488;28;20067;-80
2022/06/30 04:01:06;;;;;;;0.40;0.38;;;17.60;99.90;;;;;;5074797;28;20032;-80
2022/06/30 04:03:32;;;;;;;0.28;0.20;;;17.60;99.90;;;;;;5074504;28;20052;-80
2022/06/30 04:05:59;;;;;;;0.50;0.38;;;17.70;99.90;;;;;;5074452;28;20040;-80
2022/06/30 04:08:26;;;;;;;0.57;0.40;;;17.60;99.90;;;;;;5073837;28;20090;-78
2022/06/30 04:10:52;;;;;;;0.30;0.30;;;17.60;99.90;;;;;;5057983;28;20041;-78
2022/06/30 04:13:19;;;;;;;0.35;0.30;;;17.60;99.90;;;;;;5058006;28;20093;-80
2022/06/30 04:15:47;;;;;;;0.30;0.30;;;17.70;99.90;;;;;;5057593;28;20076;-80
2022/06/30 04:18:13;;;;;;;0.22;0.22;;;17.70;99.90;;;;;;5090551;28;20382;-80
2022/06/30 04:20:40;;;;;;;0.10;0.05;;;17.70;99.90;;;;;;5057448;28;20043;-80
2022/06/30 04:23:07;;;;;;;0.75;0.50;;;17.70;99.90;;;;;;5074194;28;20040;-78
2022/06/30 04:25:33;;;;;;;0.47;0.45;;;17.70;99.90;;;;;;5073684;28;20179;-80
2022/06/30 04:28:00;;;;;;;0.60;0.40;;;17.70;99.90;;;;;;5090057;28;20052;-79
2022/06/30 04:33:13;;;;;;;0.28;0.28;;;17.70;99.90;;;;;;5076664;28;20381;-80
2022/06/30 04:35:39;;;;;;;0.30;0.30;;;17.70;99.90;;;;;;5073608;28;20047;-78
2022/06/30 04:38:06;;;;;;;0.20;0.20;;;17.70;99.90;;;;;;5090608;28;20051;-79
2022/06/30 04:43:19;;;;;;;0.52;0.40;;;17.70;99.90;;;;;;5090476;28;20044;-78
2022/06/30 04:45:46;;;;;;;1.08;0.30;;;17.60;99.90;;;;;;5089769;28;20486;-78
2022/06/30 04:48:12;;;;;;;0.35;0.30;;;17.60;99.90;;;;;;5073853;28;20040;-79
2022/06/30 04:50:40;;;;;;;0.68;0.35;;;17.60;99.90;;;;;;5040456;28;20551;-79
2022/06/30 04:53:07;;;;;;;0.38;0.38;;;17.70;99.90;;;;;;5056573;28;20036;-79
2022/06/30 04:55:34;;;;;;;1.10;0.65;;;17.70;99.90;;;;;;5073201;28;20041;-80
2022/06/30 04:58:00;;;;;;;0.70;0.30;;;17.70;99.90;;;;;;5073371;28;20051;-78
2022/06/30 05:00:27;;;;;;;0.30;0.30;;;17.80;99.90;;;;;;5040597;28;20391;-80
2022/06/30 05:02:54;;;;;;;0.30;0.30;;;17.80;99.90;;;;;;5072839;28;20056;-79
2022/06/30 05:05:21;;;;;;;0.40;0.30;;;17.80;99.90;;;;;;5073065;28;20047;-80
2022/06/30 05:07:48;;;;;;;0.28;0.28;;;17.90;99.90;;;;;;5056495;28;20040;-80
2022/06/30 05:10:14;;;;;;;0.57;0.32;;;17.90;99.90;;;;;;5056349;28;20036;-79
2022/06/30 05:12:41;;;;;;;0.55;0.40;;;18.00;99.90;;;;;;5056255;28;20036;-78
2022/06/30 05:15:08;;;;;;;0.25;0.25;;;18.10;99.90;;;;;;5072933;28;20040;-80
2022/06/30 05:17:35;;;;;;;0.45;0.22;;;18.20;99.90;;;;;;5073224;28;20044;-79
2022/06/30 05:20:03;;;;;;;0.75;0.40;;;18.20;99.90;;;;;;5073296;28;20040;-79
2022/06/30 05:22:29;;;;;;;0.20;0.20;;;18.30;99.90;;;;;;5055763;28;20505;-80
2022/06/30 05:27:45;;;;;;;0.23;0.20;;;18.50;99.90;;;;;;5061060;28;20063;-80
2022/06/30 05:30:13;;;;;;;0.30;0.30;;;18.50;99.90;;;;;;5089414;28;20279;-79
2022/06/30 05:32:40;;;;;;;0.40;0.35;;;18.60;99.90;;;;;;5077716;28;20089;-80
2022/06/30 05:35:07;;;;;;;0.25;0.20;;;18.70;99.90;;;;;;5081269;28;20440;-80
2022/06/30 05:37:34;;;;;;;0.70;0.50;;;18.80;99.90;;;;;;5095659;28;20037;-80
2022/06/30 05:40:03;;;;;;;0.57;0.32;;;18.80;99.90;;;;;;5105812;28;20040;-79
2022/06/30 05:42:30;;;;;;;0.40;0.40;;;18.90;99.90;;;;;;5105782;28;20040;-80
2022/06/30 05:44:56;;;;;;;0.20;0.20;;;18.90;99.90;;;;;;5088686;28;20032;-79
2022/06/30 05:47:23;;;;;;;0.40;0.35;;;19.00;99.90;;;;;;5105329;28;20040;-80
2022/06/30 05:49:50;;;;;;;0.10;0.10;;;19.10;99.90;;;;;;5066310;28;20552;-79
2022/06/30 05:52:16;;;;;;;0.38;0.30;;;19.30;99.90;;;;;;5073483;28;20037;-80
2022/06/30 05:54:43;;;;;;;0.57;0.32;;;19.40;99.90;;;;;;5079729;28;20043;-80
2022/06/30 05:57:10;;;;;;;0.28;0.28;;;19.50;99.90;;;;;;5107975;28;20119;-78
2022/06/30 05:59:36;;;;;;;0.43;0.30;;;19.50;99.90;;;;;;5088632;28;20129;-80
2022/06/30 06:02:04;;;;;;;0.60;0.50;;;19.50;99.90;;;;;;5074191;28;20045;-79
2022/06/30 06:04:30;;;;;;;0.40;0.30;;;19.50;99.90;;;;;;5066987;28;20386;-82
2022/06/30 06:06:57;;;;;;;0.50;0.38;;;19.60;99.90;;;;;;5072453;28;20064;-79
2022/06/30 06:09:24;;;;;;;0.75;0.43;;;19.60;99.90;;;;;;5088845;28;20040;-81
2022/06/30 06:11:51;;;;;;;0.22;0.20;;;19.70;99.90;;;;;;5072046;28;20407;-80
2022/06/30 06:14:19;;;;;;;0.40;0.30;;;19.80;99.90;;;;;;5088016;28;20131;-79
2022/06/30 06:16:45;;;;;;;0.20;0.20;;;19.90;99.90;;;;;;5085044;28;20045;-80
2022/06/30 06:19:12;;;;;;;0.20;0.20;;;20.00;99.90;;;;;;5055080;28;20504;-80
2022/06/30 06:21:40;;;;;;;0.52;0.40;;;20.10;99.90;;;;;;5055147;28;20071;-80
2022/06/30 06:24:07;;;;;;;0.32;0.32;;;20.10;99.90;;;;;;5088057;28;20048;-80
2022/06/30 06:26:33;;;;;;;0.20;0.20;;;20.20;99.90;;;;;;5055415;28;20049;-80
2022/06/30 06:29:06;;;;;;;0.40;0.40;;;20.30;99.90;;;;;;5088546;28;20037;-81
2022/06/30 06:31:34;;;;;;;0.32;0.30;;;20.40;99.90;;;;;;5086389;28;20080;-80
2022/06/30 06:34:01;;;;;;;0.68;0.35;;;20.50;99.90;;;;;;5052681;28;20095;-81
2022/06/30 06:36:28;;;;;;;0.20;0.20;;;20.60;99.90;;;;;;5091129;28;20037;-81
2022/06/30 06:38:55;;;;;;;0.95;0.43;;;20.80;99.90;;;;;;5058616;28;20109;-81
2022/06/30 06:41:25;;;;;;;0.80;0.38;;;21.00;99.90;;;;;;5075958;28;20104;-81
2022/06/30 06:43:52;;;;;;;0.57;0.40;;;21.00;99.90;;;;;;5075511;28;20044;-81
2022/06/30 06:46:21;;;;;;;0.47;0.38;;;21.10;99.90;;;;;;5075609;28;20048;-79
2022/06/30 06:48:48;;;;;;;1.55;0.60;;;21.20;99.90;;;;;;5092402;28;20127;-80
2022/06/30 06:51:14;;;;;;;0.32;0.32;;;21.20;99.90;;;;;;5042905;28;20434;-80
2022/06/30 06:53:41;;;;;;;0.73;0.63;;;21.20;99.90;;;;;;5042747;28;20036;-80
2022/06/30 06:56:08;;;;;;;0.50;0.40;;;21.40;99.90;;;;;;5075040;28;20037;-80
2022/06/30 06:58:34;;;;;;;1.05;0.77;;;21.60;99.90;;;;;;5091787;28;20043;-80
2022/06/30 07:01:01;;;;;;;0.80;0.50;;;21.70;99.90;;;;;;5075064;28;20054;-80
2022/06/30 07:03:29;;;;;;;0.90;0.50;;;21.70;99.90;;;;;;5042404;28;20511;-80
2022/06/30 07:05:56;;;;;;;1.17;0.70;;;21.90;99.90;;;;;;5042466;28;20124;-81
2022/06/30 07:08:23;;;;;;;0.90;0.68;;;22.00;99.90;;;;;;5055332;28;20043;-81
2022/06/30 07:10:50;;;;;;;0.55;0.40;;;22.10;99.90;;;;;;5055547;28;20041;-81
2022/06/30 07:13:17;;;;;;;0.30;0.30;;;22.20;99.90;;;;;;5054977;28;20044;-81
2022/06/30 07:15:44;;;;;;;0.90;0.50;;;22.40;99.90;;;;;;5058402;28;20037;-81
2022/06/30 07:18:10;;;;;;;0.30;0.30;;;22.40;99.90;;;;;;5058421;28;20060;-81
2022/06/30 07:20:37;;;;;;;0.47;0.43;;;22.50;99.90;;;;;;5058441;28;20052;-81
2022/06/30 07:23:04;;;;;;;0.98;0.57;;;22.60;99.90;;;;;;5075122;28;20040;-82
2022/06/30 07:25:30;;;;;;;0.60;0.60;;;22.70;99.90;;;;;;5074972;28;20041;-81
2022/06/30 07:27:57;;;;;;;0.98;0.60;;;22.80;99.90;;;;;;5058230;28;20387;-80
2022/06/30 07:30:25;;;;;;;0.80;0.60;;;22.90;99.90;;;;;;5075567;28;20457;-81
2022/06/30 07:32:52;;;;;;;1.02;0.80;;;23.10;99.90;;;;;;5075276;28;20098;-81
2022/06/30 07:35:19;;;;;;;0.88;0.52;;;23.10;99.90;;;;;;5058318;28;20032;-81
2022/06/30 07:37:46;;;;;;;1.08;0.65;;;23.30;99.90;;;;;;5058464;28;20040;-81
2022/06/30 07:40:14;;;;;;;1.23;0.60;;;23.40;99.90;;;;;;5041651;28;20051;-81
2022/06/30 07:42:41;;;;;;;0.60;0.50;;;23.50;99.90;;;;;;5075005;28;20044;-81
2022/06/30 07:45:10;;;;;;;0.90;0.55;;;23.60;99.90;;;;;;5090989;28;20040;-81
2022/06/30 07:47:43;;;;;;;0.40;0.40;;;23.60;99.90;;;;;;5088311;28;20076;-81
2022/06/30 07:50:10;;;;;;;0.90;0.60;;;23.70;99.90;;;;;;5070509;28;20452;-81
2022/06/30 07:52:36;;;;;;;0.90;0.68;;;23.70;99.90;;;;;;5074318;28;20028;-81
2022/06/30 07:55:04;;;;;;;1.00;0.73;;;23.90;99.90;;;;;;5074294;28;20460;-80
2022/06/30 07:57:31;;;;;;;0.88;0.55;;;24.00;99.90;;;;;;5090683;28;20072;-81
2022/06/30 07:59:57;;;;;;;1.58;0.60;;;24.00;99.90;;;;;;5057423;28;20079;-81
2022/06/30 08:02:24;;;;;;;0.73;0.43;;;23.90;99.90;;;;;;5041932;28;20044;-83
2022/06/30 08:04:51;;;;;;;1.05;0.60;;;23.80;99.90;;;;;;5041810;28;20048;-82
2022/06/30 08:07:18;;;;;;;1.10;0.70;;;23.70;99.90;;;;;;5074815;28;20032;-85
2022/06/30 08:09:44;;;;;;;0.98;0.60;;;23.80;99.90;;;;;;5074886;28;20103;-84
2022/06/30 08:12:11;;;;;;;0.60;0.50;;;24.00;99.90;;;;;;5074192;28;20044;-82
2022/06/30 08:14:38;;;;;;;1.52;0.90;;;24.20;99.90;;;;;;5041623;28;20051;-82
2022/06/30 08:17:05;;;;;;;0.63;0.50;;;24.20;99.90;;;;;;5040864;28;20489;-82
2022/06/30 08:19:33;;;;;;;1.27;0.77;;;24.30;99.90;;;;;;5057529;28;20048;-82
2022/06/30 08:21:59;;;;;;;0.73;0.50;;;24.50;99.90;;;;;;5057423;28;20390;-82
2022/06/30 08:24:26;;;;;;;1.02;0.75;;;24.50;99.90;;;;;;5073977;28;20078;-81
2022/06/30 08:26:53;;;;;;;0.82;0.60;;;24.60;99.90;;;;;;5073415;28;20132;-82
2022/06/30 08:29:20;;;;;;;1.10;0.70;;;24.80;99.90;;;;;;5057467;28;20045;-80
2022/06/30 08:31:47;;;;;;;0.95;0.65;;;24.90;99.90;;;;;;5040982;28;20032;-81
2022/06/30 08:34:14;;;;;;;0.77;0.60;;;25.00;99.90;;;;;;5056870;28;20135;-81
2022/06/30 08:36:40;;;;;;;1.05;0.80;;;25.10;99.90;;;;;;5056945;28;20509;-81
2022/06/30 08:42:02;;;;;;;1.48;0.73;;;25.30;99.90;;;;;;5056621;28;20044;-80
2022/06/30 08:42:03;;;;;;;1.10;0.80;;;25.40;99.90;;;;;;5062522;28;20040;-81
2022/06/30 08:44:36;;;;;;;2.25;0.90;;;25.60;99.90;;;;;;5058859;28;20084;-80
2022/06/30 08:47:04;;;;;;;1.50;0.90;;;25.70;99.90;;;;;;5073197;28;20040;-80
2022/06/30 08:49:31;;;;;;;1.38;0.82;;;25.70;99.90;;;;;;5057163;28;20493;-80
2022/06/30 08:52:00;;;;;;;2.45;0.90;;;25.80;99.90;;;;;;5072970;28;20072;-80
2022/06/30 08:54:28;;;;;;;1.52;0.90;;;25.90;99.90;;;;;;5057154;28;20052;-81
2022/06/30 08:56:59;;;;;;;0.73;0.50;;;26.00;99.90;;;;;;5057247;28;20048;-82
2022/06/30 08:59:26;;;;;;;0.70;0.60;;;26.10;99.90;;;;;;5072917;28;20127;-81
2022/06/30 09:01:54;;;;;;;1.08;0.80;;;26.20;99.90;;;;;;5040340;28;20783;-82
2022/06/30 09:04:22;;;;;;;0.73;0.63;;;26.30;99.90;;;;;;5072974;28;20047;-80
2022/06/30 09:06:48;;;;;;;1.20;0.73;;;26.40;99.90;;;;;;5090137;28;20040;-81
2022/06/30 09:09:15;;;;;;;0.77;0.60;;;26.40;99.90;;;;;;5056391;28;20032;-81
2022/06/30 09:12:00;;;;;;;1.25;0.80;;;26.50;99.90;;;;;;5056668;28;20048;-81
2022/06/30 09:14:38;;;;;;;1.67;0.93;;;26.70;99.90;;;;;;5056983;28;20091;-81
2022/06/30 09:17:10;;;;;;;1.33;0.88;;;26.80;99.90;;;;;;5089156;28;20117;-81
2022/06/30 09:19:54;;;;;;;1.65;1.05;;;26.90;99.90;;;;;;5077455;28;20040;-82
2022/06/30 09:22:23;;;;;;;1.35;0.88;;;27.00;99.90;;;;;;5074631;28;20131;-84
2022/06/30 09:25:01;;;;;;;1.20;0.75;;;27.00;99.90;;;;;;5065718;28;20041;-84
2022/06/30 09:27:31;;;;;;;0.88;0.57;;;27.00;99.90;;;;;;5081712;28;20048;-84
2022/06/30 09:30:04;;;;;;;2.30;1.17;;;27.00;99.90;;;;;;5093148;28;20040;-85
2022/06/30 09:32:42;;;;;;;1.05;0.70;;;27.00;99.90;;;;;;5093119;28;20032;-83
2022/06/30 09:35:10;;;;;;;3.00;0.88;;;27.10;99.90;;;;;;5109895;28;20076;-84
2022/06/30 09:37:38;;;;;;;1.10;0.80;;;27.30;99.90;;;;;;5076926;28;20043;-83
2022/06/30 09:40:09;;;;;;;0.93;0.70;;;27.30;99.90;;;;;;5092955;28;20055;-85
2022/06/30 09:42:40;;;;;;;1.30;0.80;;;27.40;99.90;;;;;;5109741;28;20043;-84
2022/06/30 09:45:10;;;;;;;0.88;0.68;;;27.50;99.90;;;;;;5093273;28;20032;-85
2022/06/30 09:47:49;;;;;;;1.63;1.00;;;27.70;99.90;;;;;;5093005;28;20123;-84
2022/06/30 09:50:16;;;;;;;1.27;0.75;;;27.80;99.90;;;;;;5077708;28;20047;-84
2022/06/30 09:52:43;;;;;;;1.25;0.90;;;28.00;99.90;;;;;;5109767;28;20036;-84
2022/06/30 09:55:10;;;;;;;1.80;1.00;;;28.00;99.90;;;;;;5076216;28;20452;-84
2022/06/30 09:57:40;;;;;;;1.88;1.00;;;28.00;99.90;;;;;;5093226;28;20415;-84
2022/06/30 10:00:08;;;;;;;1.15;0.82;;;28.00;99.90;;;;;;5092413;28;20122;-84
2022/06/30 10:02:39;;;;;;;1.05;0.73;;;28.10;99.90;;;;;;5109674;28;20044;-84
2022/06/30 10:05:07;;;;;;;0.93;0.60;;;28.00;99.90;;;;;;5092871;28;20044;-87
2022/06/30 10:07:35;;;;;;;1.42;0.90;;;28.00;99.90;;;;;;5092637;28;20040;-84
2022/06/30 10:10:04;;;;;;;0.82;0.68;;;28.00;99.90;;;;;;5128852;28;20044;-85
2022/06/30 10:12:31;;;;;;;0.70;0.70;;;28.10;99.90;;;;;;5096727;28;20040;-85
2022/06/30 10:14:58;;;;;;;1.17;0.70;;;28.10;99.90;;;;;;5109901;28;20040;-84
2022/06/30 10:17:28;;;;;;;1.05;0.80;;;28.20;99.90;;;;;;5093044;28;20040;-83
2022/06/30 10:19:55;;;;;;;0.88;0.70;;;28.20;99.90;;;;;;5093222;28;20455;-86
2022/06/30 10:22:25;;;;;;;1.17;0.70;;;28.40;99.90;;;;;;5114478;28;20040;-85
2022/06/30 10:24:54;;;;;;;0.90;0.80;;;28.50;99.90;;;;;;5085830;28;20078;-85
2022/06/30 10:27:24;;;;;;;1.13;0.75;;;28.60;99.90;;;;;;5083303;28;20084;-85
2022/06/30 10:29:59;;;;;;;1.75;1.00;;;28.60;99.90;;;;;;5086313;28;20040;-85
2022/06/30 10:32:46;;;;;;;0.70;0.60;;;28.20;99.90;;;;;;5113100;28;20039;-85
2022/06/30 10:35:13;;;;;;;1.75;0.90;;;28.20;99.90;;;;;;5083227;28;20044;-86
2022/06/30 10:38:13;;;;;;;1.40;0.90;;;28.40;99.90;;;;;;5076771;28;20047;-84
2022/06/30 10:40:54;;;;;;;1.08;0.75;;;28.40;99.90;;;;;;5079311;28;20492;-87
2022/06/30 10:43:21;;;;;;;1.45;0.85;;;28.50;99.90;;;;;;5109289;28;20043;-87
2022/06/30 10:45:57;;;;;;;1.02;0.70;;;28.60;99.90;;;;;;5100818;28;20497;-84
2022/06/30 10:48:27;;;;;;;0.93;0.70;;;28.70;99.90;;;;;;5079581;28;20028;-84
2022/06/30 10:50:54;;;;;;;1.75;0.93;;;28.90;99.90;;;;;;5113199;28;20047;-83
2022/06/30 10:53:35;;;;;;;1.17;0.85;;;28.80;99.90;;;;;;5079633;28;20044;-84
2022/06/30 10:56:02;;;;;;;1.10;0.75;;;28.90;99.90;;;;;;5086761;28;20048;-83
2022/06/30 10:58:29;;;;;;;1.27;0.82;;;29.00;99.90;;;;;;5059259;28;20101;-84
2022/06/30 11:01:05;;;;;;;1.25;0.75;;;29.10;99.90;;;;;;5059276;28;20080;-84
2022/06/30 11:03:33;;;;;;;1.48;0.88;;;29.20;99.90;;;;;;5092538;28;20465;-85
2022/06/30 11:06:05;;;;;;;1.10;0.77;;;29.30;99.90;;;;;;5092044;28;20040;-85
2022/06/30 11:11:27;;;;;;;0.80;0.60;;;29.50;99.90;;;;;;5106092;28;20044;-85
2022/06/30 11:14:02;;;;;;;1.15;0.77;;;29.60;99.80;;;;;;5095870;28;20039;-85
2022/06/30 11:16:31;;;;;;;1.60;0.70;;;29.60;99.90;;;;;;5055917;28;20044;-85
2022/06/30 11:18:58;;;;;;;1.08;0.70;;;29.40;99.00;;;;;;5088711;28;20115;-85
2022/06/30 11:21:28;;;;;;;0.75;0.73;;;29.50;99.50;;;;;;5094519;28;20046;-85
2022/06/30 11:24:00;;;;;;;0.95;0.63;;;29.60;99.90;;;;;;5096396;28;20404;-85
2022/06/30 11:29:16;;;;;;;1.15;0.77;;;29.60;99.70;;;;;;5111499;28;20511;-85
2022/06/30 11:31:44;;;;;;;1.35;0.95;;;29.70;99.50;;;;;;5081434;28;20033;-85
2022/06/30 11:34:16;;;;;;;1.33;0.75;;;29.80;99.90;;;;;;5091504;28;20481;-85
2022/06/30 11:36:44;;;;;;;2.15;0.98;;;29.70;99.00;;;;;;5091302;28;20036;-85
2022/06/30 11:39:20;;;;;;;0.82;0.70;;;29.60;98.20;;;;;;5124887;28;20043;-85
2022/06/30 11:42:00;;;;;;;0.93;0.70;;;29.70;99.80;;;;;;5108320;28;20036;-85
2022/06/30 11:44:33;;;;;;;1.85;1.10;;;29.80;98.80;;;;;;5091192;28;20490;-85
2022/06/30 11:47:06;;;;;;;1.23;0.80;;;29.90;99.90;;;;;;5107905;28;20072;-85
2022/06/30 11:49:54;;;;;;;1.08;0.70;;;29.80;98.30;;;;;;5124741;28;20048;-85
2022/06/30 11:52:37;;;;;;;0.90;0.73;;;29.90;99.90;;;;;;5074341;28;20040;-85
2022/06/30 11:55:09;;;;;;;1.23;0.80;;;29.90;99.30;;;;;;5107766;28;20040;-86
2022/06/30 11:57:38;;;;;;;1.02;0.80;;;30.10;98.10;;;;;;5091030;28;20040;-85
2022/06/30 12:00:15;;;;;;;1.10;0.70;;;30.20;97.30;;;;;;5107850;28;20489;-85
2022/06/30 12:02:44;;;;;;;1.10;0.85;;;30.20;98.40;;;;;;5115744;28;20054;-85
2022/06/30 12:05:13;;;;;;;0.70;0.60;;;30.30;97.20;;;;;;5107381;28;20045;-85
2022/06/30 12:07:42;;;;;;;1.10;0.75;;;30.40;97.70;;;;;;5077098;28;20036;-85
2022/06/30 12:10:11;;;;;;;0.52;0.52;;;30.40;98.00;;;;;;5075036;28;20041;-86
2022/06/30 12:12:39;;;;;;;0.82;0.70;;;30.50;98.30;;;;;;5106649;28;20043;-85
2022/06/30 12:15:12;;;;;;;1.17;0.80;;;30.40;97.80;;;;;;5074317;28;20383;-85
2022/06/30 12:17:47;;;;;;;1.75;1.02;;;30.30;97.60;;;;;;5074245;28;20083;-85
2022/06/30 12:20:14;;;;;;;;;;;30.30;97.00;;;;;;5109965;28;20040;-85
2022/06/30 12:22:46;;;;;;;1.00;0.65;;;30.00;98.40;;;;;;5094505;28;19916;-85
2022/06/30 12:25:15;;;;;;;1.75;0.90;;;29.80;99.00;;;;;;5073110;28;20052;-86
2022/06/30 12:27:45;;;;;;;1.00;0.75;;;29.60;98.30;;;;;;5055794;28;20079;-85
2022/06/30 12:30:14;;;;;;;1.02;0.70;;;29.60;98.20;;;;;;5073733;28;20404;-86
2022/06/30 12:32:41;;;;;;;0.95;0.60;;;29.50;98.40;;;;;;5090474;28;20047;-81
2022/06/30 12:35:11;;;;;;;1.33;0.88;;;29.50;98.10;;;;;;5057669;28;20040;-84
2022/06/30 12:37:41;;;;;;;0.70;0.70;;;29.40;98.10;;;;;;5073983;28;20045;-84
2022/06/30 12:40:16;;;;;;;1.20;0.75;;;29.20;98.80;;;;;;5088595;28;20036;-83
2022/06/30 12:42:46;;;;;;;0.85;0.60;;;29.00;98.70;;;;;;5079838;28;20097;-84
2022/06/30 12:45:48;;;;;;;1.17;0.70;;;29.00;99.00;;;;;;5090092;28;20076;-82
2022/06/30 12:48:42;;;;;;;0.63;0.63;;;29.00;98.50;;;;;;5087255;28;20124;-83
2022/06/30 12:51:11;;;;;;;0.60;0.60;;;28.90;98.20;;;;;;5090023;28;20036;-84
2022/06/30 12:53:39;;;;;;;0.38;0.38;;;29.10;98.50;;;;;;5073318;28;20036;-84
2022/06/30 12:56:19;;;;;;;1.10;0.77;;;29.30;98.00;;;;;;5117545;28;20501;-86
2022/06/30 12:58:59;;;;;;;1.08;0.90;;;29.20;97.50;;;;;;5073750;28;20044;-84
2022/06/30 13:01:35;;;;;;;1.08;0.88;;;29.40;98.40;;;;;;5073736;28;20040;-84
2022/06/30 13:04:29;;;;;;;1.10;0.85;;;29.40;97.90;;;;;;5073078;28;20155;-84
2022/06/30 13:06:57;;;;;;;1.17;0.80;;;29.40;98.60;;;;;;5070369;28;20056;-84
2022/06/30 13:09:27;;;;;;;1.20;0.77;;;29.20;97.60;;;;;;5056972;28;20043;-84
2022/06/30 13:11:59;;;;;;;1.48;0.80;;;29.30;98.20;;;;;;5073131;28;20044;-84
2022/06/30 13:14:29;;;;;;;1.13;0.82;;;29.40;98.20;;;;;;5073457;28;20051;-84